Time;durP1;ratioP1;P1;durP2;ratioP2;P2;SDS_P1;SDS_P2;PMS_P1;PMS_P2;Temp;Humidity;BMP_temperature;BMP_pressure;BME280_temperature;BME280_humidity;BME280_pressure;Samples;Min_cycle;Max_cycle;Signal;HPM_P1;HPM_P2
2021/09/09 00:01:23;;;;;;;16.93;13.30;;;16.30;92.60;;;;;;4993712;28;20054;-72
2021/09/09 00:03:49;;;;;;;16.73;12.87;;;16.30;92.60;;;;;;4993558;28;20046;-71
2021/09/09 00:06:14;;;;;;;16.97;13.57;;;16.30;92.50;;;;;;4993113;28;20565;-71
2021/09/09 00:08:40;;;;;;;20.33;13.37;;;16.30;92.90;;;;;;4993756;28;20042;-71
2021/09/09 00:11:06;;;;;;;18.37;14.23;;;16.30;92.50;;;;;;4993207;28;20043;-72
2021/09/09 00:13:31;;;;;;;16.03;13.67;;;16.20;92.50;;;;;;4994105;28;20101;-72
2021/09/09 00:15:57;;;;;;;14.13;12.27;;;16.10;92.50;;;;;;4993862;28;20054;-72
2021/09/09 00:18:24;;;;;;;16.10;12.83;;;16.20;92.70;;;;;;4994413;28;20506;-72
2021/09/09 00:20:49;;;;;;;14.83;12.13;;;16.10;92.70;;;;;;4992354;28;20057;-72
2021/09/09 00:23:15;;;;;;;14.97;13.37;;;16.10;92.80;;;;;;4992481;28;20042;-72
2021/09/09 00:25:40;;;;;;;15.47;13.67;;;16.00;92.80;;;;;;4994064;28;20050;-72
2021/09/09 00:28:06;;;;;;;15.70;13.53;;;16.00;92.90;;;;;;4993220;28;20052;-72
2021/09/09 00:30:32;;;;;;;22.37;14.27;;;15.90;92.90;;;;;;4994130;28;20101;-72
2021/09/09 00:32:57;;;;;;;15.67;12.17;;;15.90;92.90;;;;;;4992662;28;20053;-72
2021/09/09 00:35:23;;;;;;;15.83;12.77;;;15.90;92.90;;;;;;4993056;28;20068;-72
2021/09/09 00:37:48;;;;;;;14.10;11.93;;;15.90;92.90;;;;;;4992960;28;20061;-72
2021/09/09 00:40:14;;;;;;;16.33;13.07;;;15.90;93.00;;;;;;4993687;28;20042;-72
2021/09/09 00:42:40;;;;;;;17.97;13.83;;;15.80;93.10;;;;;;4993257;28;20133;-72
2021/09/09 00:45:07;;;;;;;18.20;12.97;;;15.80;93.30;;;;;;4993832;28;20390;-72
2021/09/09 00:47:32;;;;;;;14.57;12.93;;;15.80;93.40;;;;;;4993975;28;20205;-72
2021/09/09 00:49:58;;;;;;;14.37;12.50;;;15.70;93.40;;;;;;4992828;28;20523;-72
2021/09/09 00:52:23;;;;;;;15.63;12.87;;;15.70;93.50;;;;;;4993356;28;20047;-71
2021/09/09 00:54:49;;;;;;;17.70;12.63;;;15.70;93.70;;;;;;4993243;28;20372;-72
2021/09/09 00:57:16;;;;;;;15.40;12.70;;;15.70;93.70;;;;;;4991254;28;20053;-72
2021/09/09 00:59:44;;;;;;;15.00;13.20;;;15.60;93.80;;;;;;4993624;28;20438;-72
2021/09/09 01:02:10;;;;;;;14.33;12.77;;;15.60;93.80;;;;;;4992239;28;20133;-72
2021/09/09 01:04:35;;;;;;;14.63;12.90;;;15.60;93.80;;;;;;4991565;28;20153;-72
2021/09/09 01:07:01;;;;;;;14.97;12.90;;;15.50;93.80;;;;;;4992012;28;20042;-72
2021/09/09 01:09:26;;;;;;;17.10;13.17;;;15.50;93.80;;;;;;4992060;28;20180;-72
2021/09/09 01:11:52;;;;;;;15.03;13.33;;;15.50;93.90;;;;;;4992413;28;20065;-72
2021/09/09 01:14:18;;;;;;;15.40;12.93;;;15.50;93.90;;;;;;4991833;28;20073;-72
2021/09/09 01:16:46;;;;;;;14.30;12.70;;;15.40;94.00;;;;;;4993037;28;20050;-72
2021/09/09 01:19:13;;;;;;;15.97;13.17;;;15.40;94.00;;;;;;4992248;28;20078;-72
2021/09/09 01:21:39;;;;;;;14.80;12.13;;;15.40;94.00;;;;;;4993308;28;20050;-72
2021/09/09 01:24:12;;;;;;;14.70;13.07;;;15.40;94.00;;;;;;4993037;28;20050;-72
2021/09/09 01:26:56;;;;;;;16.90;13.33;;;15.30;94.00;;;;;;4993366;28;20399;-72
2021/09/09 01:29:25;;;;;;;15.77;13.57;;;15.30;94.10;;;;;;4993073;28;20054;-72
2021/09/09 01:31:51;;;;;;;17.90;14.20;;;15.20;94.20;;;;;;4991039;28;20058;-72
2021/09/09 01:34:17;;;;;;;17.03;14.33;;;15.20;94.30;;;;;;4992802;28;20403;-72
2021/09/09 01:36:43;;;;;;;15.60;13.43;;;15.20;94.40;;;;;;4991362;28;20054;-72
2021/09/09 01:39:09;;;;;;;15.73;13.20;;;15.20;94.40;;;;;;4991855;28;20042;-72
2021/09/09 01:41:35;;;;;;;20.10;15.93;;;15.10;94.40;;;;;;4992769;28;20042;-72
2021/09/09 01:44:01;;;;;;;15.53;13.30;;;15.10;94.40;;;;;;4991401;28;20443;-72
2021/09/09 01:46:27;;;;;;;16.73;14.93;;;15.10;94.50;;;;;;4990894;28;20056;-72
2021/09/09 01:48:54;;;;;;;16.77;14.63;;;15.10;94.60;;;;;;4992882;28;20068;-72
2021/09/09 01:51:19;;;;;;;16.60;14.90;;;15.10;94.60;;;;;;4992415;28;20038;-71
2021/09/09 01:53:45;;;;;;;17.80;15.43;;;15.10;94.70;;;;;;4991950;28;20104;-71
2021/09/09 01:56:11;;;;;;;17.00;14.53;;;15.00;94.70;;;;;;4992803;28;20134;-72
2021/09/09 01:58:36;;;;;;;18.53;16.33;;;15.00;94.80;;;;;;4992932;28;20096;-72
2021/09/09 02:01:02;;;;;;;18.10;16.13;;;14.90;94.80;;;;;;4990895;28;20046;-72
2021/09/09 02:03:27;;;;;;;18.90;15.80;;;15.00;94.80;;;;;;4992670;28;20124;-72
2021/09/09 02:05:53;;;;;;;18.60;15.47;;;14.90;94.80;;;;;;4993424;28;20057;-72
2021/09/09 02:08:19;;;;;;;17.20;15.30;;;14.80;94.80;;;;;;4994618;28;20053;-72
2021/09/09 02:10:44;;;;;;;18.20;15.93;;;14.80;95.00;;;;;;4995425;28;20045;-72
2021/09/09 02:13:10;;;;;;;22.13;16.23;;;14.80;95.00;;;;;;4996546;28;20105;-72
2021/09/09 02:15:35;;;;;;;19.30;15.43;;;14.80;95.10;;;;;;4995942;28;20137;-72
2021/09/09 02:18:01;;;;;;;18.23;15.23;;;14.80;95.10;;;;;;4996538;28;20042;-72
2021/09/09 02:20:29;;;;;;;18.50;15.10;;;14.80;95.10;;;;;;4995387;28;20109;-72
2021/09/09 02:22:57;;;;;;;15.47;13.80;;;14.80;95.10;;;;;;4995143;28;20205;-72
2021/09/09 02:25:23;;;;;;;18.87;15.30;;;14.70;95.10;;;;;;4995941;28;20046;-72
2021/09/09 02:27:48;;;;;;;19.73;17.57;;;14.70;95.20;;;;;;4995670;28;20049;-72
2021/09/09 02:30:14;;;;;;;17.33;15.53;;;14.60;95.20;;;;;;4994542;28;20046;-72
2021/09/09 02:32:39;;;;;;;19.50;17.43;;;14.60;95.30;;;;;;4996073;28;20054;-72
2021/09/09 02:35:06;;;;;;;20.30;17.03;;;14.60;95.40;;;;;;4995237;28;20072;-72
2021/09/09 02:37:31;;;;;;;21.90;17.40;;;14.60;95.50;;;;;;4994832;28;20097;-71
2021/09/09 02:39:57;;;;;;;19.37;17.20;;;14.50;95.50;;;;;;4994865;28;20085;-72
2021/09/09 02:42:22;;;;;;;21.87;17.60;;;14.50;95.50;;;;;;4995198;28;20046;-72
2021/09/09 02:44:48;;;;;;;20.20;17.20;;;14.50;95.60;;;;;;4994742;28;20105;-72
2021/09/09 02:47:13;;;;;;;19.17;17.03;;;14.50;95.60;;;;;;4995677;28;20042;-72
2021/09/09 02:49:39;;;;;;;22.17;19.10;;;14.50;95.60;;;;;;4995082;28;20080;-72
2021/09/09 02:52:05;;;;;;;19.57;17.03;;;14.50;95.60;;;;;;4995943;28;20379;-72
2021/09/09 02:54:30;;;;;;;19.83;17.83;;;14.50;95.60;;;;;;4995678;28;20050;-72
2021/09/09 02:56:56;;;;;;;21.03;18.87;;;14.50;95.60;;;;;;4993675;28;20093;-72
2021/09/09 02:59:21;;;;;;;20.63;18.43;;;14.50;95.60;;;;;;4995541;28;20501;-72
2021/09/09 03:01:47;;;;;;;25.10;19.90;;;14.50;95.50;;;;;;4995690;28;20038;-72
2021/09/09 03:04:13;;;;;;;21.20;18.80;;;14.40;95.50;;;;;;4994424;28;20057;-72
2021/09/09 03:06:38;;;;;;;21.97;19.67;;;14.30;95.60;;;;;;4995940;28;20043;-72
2021/09/09 03:09:04;;;;;;;22.97;18.83;;;14.30;95.70;;;;;;4995806;28;20081;-72
2021/09/09 03:11:29;;;;;;;22.43;19.73;;;14.20;96.10;;;;;;4993640;28;20053;-72
2021/09/09 03:13:55;;;;;;;21.80;19.13;;;14.20;95.90;;;;;;4995426;28;20053;-72
2021/09/09 03:16:21;;;;;;;22.03;19.63;;;14.20;96.00;;;;;;4994833;28;20042;-71
2021/09/09 03:18:46;;;;;;;22.77;19.33;;;14.10;96.10;;;;;;4994516;28;20042;-71
2021/09/09 03:21:12;;;;;;;23.70;20.50;;;14.10;96.20;;;;;;4993734;28;20057;-71
2021/09/09 03:23:38;;;;;;;25.97;20.77;;;14.10;96.30;;;;;;4993945;28;20046;-72
2021/09/09 03:26:03;;;;;;;22.73;20.37;;;14.10;96.30;;;;;;4994764;28;20085;-71
2021/09/09 03:28:29;;;;;;;22.30;20.00;;;14.10;96.30;;;;;;4993534;28;20201;-71
2021/09/09 03:30:54;;;;;;;23.07;20.23;;;14.20;96.30;;;;;;4994452;28;20467;-71
2021/09/09 03:33:20;;;;;;;24.67;21.67;;;14.10;96.30;;;;;;4994944;28;20125;-71
2021/09/09 03:35:45;;;;;;;26.63;21.40;;;14.10;96.30;;;;;;4993483;28;20058;-71
2021/09/09 03:38:11;;;;;;;26.00;20.87;;;14.10;96.40;;;;;;4993060;28;20050;-71
2021/09/09 03:40:37;;;;;;;24.67;21.90;;;14.00;96.40;;;;;;4994782;28;20053;-71
2021/09/09 03:43:03;;;;;;;23.83;21.23;;;14.00;96.40;;;;;;4993812;28;20073;-71
2021/09/09 03:45:29;;;;;;;27.43;22.27;;;14.00;96.50;;;;;;4993741;28;20495;-71
2021/09/09 03:47:55;;;;;;;26.67;21.90;;;14.00;96.60;;;;;;4993652;28;20049;-72
2021/09/09 03:50:21;;;;;;;25.53;22.83;;;14.00;96.60;;;;;;4994463;28;20054;-71
2021/09/09 03:52:46;;;;;;;27.03;22.63;;;14.00;96.60;;;;;;4994146;28;20047;-72
2021/09/09 03:55:12;;;;;;;24.13;21.53;;;14.00;96.70;;;;;;4993099;28;20073;-72
2021/09/09 03:57:38;;;;;;;25.00;22.50;;;14.00;96.70;;;;;;4994769;28;20049;-72
2021/09/09 04:00:05;;;;;;;25.17;22.47;;;14.00;96.70;;;;;;4992918;28;20051;-72
2021/09/09 04:02:31;;;;;;;26.43;23.63;;;13.90;96.70;;;;;;4994386;28;20484;-72
2021/09/09 04:04:56;;;;;;;25.83;22.20;;;14.00;96.70;;;;;;4994786;28;20101;-71
2021/09/09 04:07:22;;;;;;;26.07;22.37;;;13.90;96.70;;;;;;4992406;28;20042;-72
2021/09/09 04:09:47;;;;;;;29.50;24.03;;;13.90;96.80;;;;;;4994548;28;20049;-72
2021/09/09 04:12:13;;;;;;;26.83;23.97;;;13.90;96.90;;;;;;4992838;28;20137;-72
2021/09/09 04:14:38;;;;;;;26.90;23.93;;;14.00;96.90;;;;;;4993515;28;20042;-71
2021/09/09 04:17:04;;;;;;;27.30;24.30;;;13.90;96.80;;;;;;4994190;28;20038;-72
2021/09/09 04:19:30;;;;;;;25.87;23.27;;;13.90;96.80;;;;;;4993040;28;20082;-72
2021/09/09 04:21:56;;;;;;;30.13;25.57;;;13.90;96.90;;;;;;4992488;28;20057;-72
2021/09/09 04:24:22;;;;;;;28.40;25.43;;;13.80;97.00;;;;;;4993799;28;20125;-72
2021/09/09 04:26:48;;;;;;;26.77;23.63;;;13.80;97.10;;;;;;4994466;28;20042;-72
2021/09/09 04:29:13;;;;;;;27.13;23.87;;;13.80;97.10;;;;;;4992243;28;20441;-72
2021/09/09 04:31:39;;;;;;;29.93;24.70;;;13.90;97.10;;;;;;4994332;28;20034;-72
2021/09/09 04:34:08;;;;;;;31.07;26.40;;;13.80;97.10;;;;;;4993043;28;20542;-72
2021/09/09 04:36:34;;;;;;;28.13;24.63;;;13.80;97.10;;;;;;4992374;28;20054;-71
2021/09/09 04:38:59;;;;;;;29.77;25.40;;;13.80;97.20;;;;;;4992771;28;20061;-72
2021/09/09 04:41:25;;;;;;;32.63;25.90;;;13.80;97.30;;;;;;4991575;28;20042;-72
2021/09/09 04:43:51;;;;;;;28.53;25.50;;;13.80;97.30;;;;;;4993725;28;20104;-71
2021/09/09 04:46:16;;;;;;;28.50;25.33;;;13.80;97.30;;;;;;4993289;28;20050;-72
2021/09/09 04:48:42;;;;;;;30.97;26.60;;;13.80;97.30;;;;;;4991520;28;20054;-72
2021/09/09 04:51:08;;;;;;;30.57;27.23;;;13.70;97.30;;;;;;4993468;28;20042;-72
2021/09/09 04:53:33;;;;;;;34.70;28.30;;;13.70;97.40;;;;;;4993790;28;20114;-71
2021/09/09 04:55:59;;;;;;;33.83;28.23;;;13.70;97.40;;;;;;4991533;28;20053;-71
2021/09/09 04:58:25;;;;;;;31.13;27.83;;;13.70;97.50;;;;;;4991800;28;20085;-72
2021/09/09 05:00:50;;;;;;;30.20;26.90;;;13.70;97.50;;;;;;4993330;28;20046;-72
2021/09/09 05:03:16;;;;;;;33.27;29.70;;;13.80;97.50;;;;;;4991111;28;20058;-71
2021/09/09 05:05:41;;;;;;;32.60;28.30;;;13.80;97.50;;;;;;4993180;28;20513;-71
2021/09/09 05:08:07;;;;;;;32.00;28.47;;;13.80;97.50;;;;;;4991887;28;20046;-71
2021/09/09 05:10:33;;;;;;;31.80;28.40;;;13.80;97.40;;;;;;4991176;28;20073;-72
2021/09/09 05:12:58;;;;;;;30.67;27.37;;;13.80;97.40;;;;;;4992086;28;20097;-71
2021/09/09 05:15:24;;;;;;;32.93;28.40;;;13.80;97.40;;;;;;4991790;28;20054;-71
2021/09/09 05:17:50;;;;;;;32.83;28.97;;;13.70;97.40;;;;;;4992309;28;20268;-72
2021/09/09 05:20:16;;;;;;;34.70;28.53;;;13.70;97.50;;;;;;4993048;28;20089;-72
2021/09/09 05:22:41;;;;;;;33.33;28.47;;;13.80;97.60;;;;;;4992958;28;20450;-72
2021/09/09 05:25:07;;;;;;;35.17;29.67;;;13.80;97.60;;;;;;4990550;28;20069;-72
2021/09/09 05:27:33;;;;;;;32.10;27.77;;;13.80;97.60;;;;;;4992753;28;20129;-71
2021/09/09 05:29:59;;;;;;;32.07;27.07;;;13.80;97.50;;;;;;4992890;28;20181;-72
2021/09/09 05:32:24;;;;;;;31.63;27.47;;;13.80;97.50;;;;;;4990476;28;20061;-71
2021/09/09 05:34:50;;;;;;;31.23;27.60;;;13.80;97.60;;;;;;4991442;28;20415;-71
2021/09/09 05:37:16;;;;;;;32.20;26.43;;;13.80;97.60;;;;;;4992554;28;20057;-71
2021/09/09 05:39:41;;;;;;;32.73;27.53;;;13.80;97.60;;;;;;4992110;28;20046;-71
2021/09/09 05:42:07;;;;;;;32.53;26.70;;;13.80;97.50;;;;;;4991003;28;20043;-71
2021/09/09 05:44:32;;;;;;;28.00;24.90;;;13.80;97.60;;;;;;4992002;28;20042;-71
2021/09/09 05:46:58;;;;;;;30.27;26.97;;;13.80;97.60;;;;;;4991094;28;20065;-71
2021/09/09 05:49:23;;;;;;;31.90;27.60;;;13.80;97.50;;;;;;4990804;28;20460;-71
2021/09/09 05:51:49;;;;;;;29.33;26.13;;;13.80;97.60;;;;;;4990439;28;20046;-71
2021/09/09 05:54:15;;;;;;;29.23;26.10;;;13.80;97.60;;;;;;4991127;28;20145;-72
2021/09/09 05:56:40;;;;;;;31.30;27.13;;;13.90;97.60;;;;;;4991194;28;20133;-72
2021/09/09 05:59:06;;;;;;;29.83;26.33;;;13.90;97.60;;;;;;4991846;28;20046;-72
2021/09/09 06:01:32;;;;;;;28.23;24.73;;;13.90;97.60;;;;;;4992362;28;20050;-72
2021/09/09 06:03:58;;;;;;;31.60;27.50;;;13.90;97.60;;;;;;4991205;28;20463;-72
2021/09/09 06:06:25;;;;;;;29.37;26.27;;;13.90;97.70;;;;;;4991551;28;20073;-71
2021/09/09 06:08:51;;;;;;;31.67;28.00;;;13.90;97.70;;;;;;4991134;28;20057;-72
2021/09/09 06:11:17;;;;;;;31.33;26.93;;;13.90;97.60;;;;;;4990597;28;20046;-72
2021/09/09 06:13:42;;;;;;;28.53;25.13;;;13.90;97.70;;;;;;4991546;28;20050;-72
2021/09/09 06:16:08;;;;;;;30.00;25.50;;;14.00;97.70;;;;;;4992019;28;20053;-72
2021/09/09 06:18:35;;;;;;;30.00;26.07;;;14.00;97.70;;;;;;4992346;28;20042;-71
2021/09/09 06:21:02;;;;;;;34.80;26.80;;;14.00;97.80;;;;;;4991552;28;20132;-71
2021/09/09 06:23:28;;;;;;;32.07;27.63;;;14.10;97.90;;;;;;4991953;28;20077;-71
2021/09/09 06:25:54;;;;;;;30.07;26.90;;;14.10;97.80;;;;;;4992188;28;20136;-71
2021/09/09 06:28:20;;;;;;;31.83;27.03;;;14.10;97.70;;;;;;4991242;28;20125;-71
2021/09/09 06:30:46;;;;;;;31.73;27.03;;;14.20;97.70;;;;;;4991908;28;20081;-72
2021/09/09 06:33:12;;;;;;;28.57;25.30;;;14.20;97.60;;;;;;4992149;28;20448;-72
2021/09/09 06:35:38;;;;;;;31.27;26.93;;;14.30;97.60;;;;;;4991128;28;20566;-71
2021/09/09 06:38:03;;;;;;;28.23;25.27;;;14.30;97.60;;;;;;4990731;28;20054;-71
2021/09/09 06:40:29;;;;;;;28.87;25.87;;;14.40;97.60;;;;;;4991438;28;20039;-71
2021/09/09 06:42:55;;;;;;;31.57;28.27;;;14.50;97.60;;;;;;4991474;28;20129;-71
2021/09/09 06:45:21;;;;;;;34.03;27.80;;;14.50;97.60;;;;;;4990765;28;20407;-71
2021/09/09 06:47:46;;;;;;;29.17;25.90;;;14.60;97.50;;;;;;4991668;28;20042;-71
2021/09/09 06:50:12;;;;;;;30.10;27.00;;;14.60;97.40;;;;;;4991469;28;20085;-71
2021/09/09 06:52:40;;;;;;;32.97;27.93;;;14.70;97.40;;;;;;4994983;28;20121;-71
2021/09/09 06:55:07;;;;;;;32.90;27.77;;;14.70;97.40;;;;;;4993379;28;20054;-71
2021/09/09 06:57:32;;;;;;;32.17;26.87;;;14.80;97.50;;;;;;4994199;28;20530;-71
2021/09/09 06:59:58;;;;;;;31.07;27.87;;;14.90;97.40;;;;;;4995591;28;20039;-71
2021/09/09 07:02:27;;;;;;;31.83;27.27;;;15.00;97.80;;;;;;4993714;28;20519;-71
2021/09/09 07:04:52;;;;;;;29.13;26.20;;;15.00;97.30;;;;;;4995520;28;20046;-71
2021/09/09 07:07:18;;;;;;;30.87;27.60;;;15.10;97.20;;;;;;4994972;28;20046;-70
2021/09/09 07:09:45;;;;;;;31.13;27.70;;;15.20;97.10;;;;;;4998212;28;20038;-71
2021/09/09 07:12:11;;;;;;;30.13;26.33;;;15.20;97.10;;;;;;4993790;28;20173;-71
2021/09/09 07:14:36;;;;;;;31.10;27.80;;;15.30;97.00;;;;;;4994662;28;20050;-70
2021/09/09 07:17:02;;;;;;;30.23;26.73;;;15.40;97.00;;;;;;4994417;28;20026;-71
2021/09/09 07:19:28;;;;;;;30.73;27.57;;;15.50;96.90;;;;;;4994242;28;20054;-70
2021/09/09 07:21:53;;;;;;;31.90;28.57;;;15.50;96.90;;;;;;4992143;28;20069;-71
2021/09/09 07:24:19;;;;;;;31.47;27.60;;;15.60;96.90;;;;;;4994264;28;20551;-71
2021/09/09 07:26:46;;;;;;;28.40;25.40;;;15.70;96.80;;;;;;4995129;28;20050;-70
2021/09/09 07:29:13;;;;;;;29.80;26.70;;;15.80;96.70;;;;;;4994150;28;20039;-70
2021/09/09 07:31:43;;;;;;;27.67;23.10;;;15.90;96.70;;;;;;4993808;28;20404;-70
2021/09/09 07:34:10;;;;;;;32.77;28.13;;;15.90;96.60;;;;;;4994045;28;20153;-71
2021/09/09 07:36:36;;;;;;;29.23;26.17;;;16.00;96.60;;;;;;4994351;28;20097;-70
2021/09/09 07:39:02;;;;;;;30.83;27.53;;;16.10;96.50;;;;;;4994106;28;20089;-71
2021/09/09 07:41:28;;;;;;;29.80;26.60;;;16.20;96.50;;;;;;4994208;28;20082;-71
2021/09/09 07:43:54;;;;;;;29.80;26.60;;;16.30;96.50;;;;;;4994210;28;20192;-70
2021/09/09 07:46:20;;;;;;;31.87;28.10;;;16.30;96.40;;;;;;4992450;28;20074;-71
2021/09/09 07:48:45;;;;;;;29.60;26.40;;;16.40;96.40;;;;;;4994607;28;20078;-70
2021/09/09 07:51:12;;;;;;;30.97;27.60;;;16.50;96.30;;;;;;4993212;28;20052;-71
2021/09/09 07:53:37;;;;;;;35.23;27.27;;;16.60;96.30;;;;;;4993366;28;20130;-71
2021/09/09 07:56:04;;;;;;;29.13;26.00;;;16.60;96.30;;;;;;4993207;28;20046;-71
2021/09/09 07:58:30;;;;;;;30.10;26.90;;;16.70;96.20;;;;;;4992378;28;20054;-71
2021/09/09 08:00:55;;;;;;;30.03;26.60;;;16.80;96.10;;;;;;4993000;28;20046;-73
2021/09/09 08:03:21;;;;;;;29.80;26.73;;;16.80;95.90;;;;;;4991909;28;20074;-70
2021/09/09 08:05:46;;;;;;;36.47;27.30;;;16.90;95.90;;;;;;4993483;28;20054;-69
2021/09/09 08:08:12;;;;;;;30.80;25.97;;;17.10;96.00;;;;;;4992721;28;20054;-71
2021/09/09 08:10:37;;;;;;;30.10;26.87;;;17.10;95.90;;;;;;4993255;28;20057;-70
2021/09/09 08:13:03;;;;;;;31.37;28.07;;;17.30;96.00;;;;;;4993761;28;20042;-70
2021/09/09 08:15:29;;;;;;;28.17;25.33;;;17.30;95.90;;;;;;4994221;28;20046;-70
2021/09/09 08:17:55;;;;;;;29.73;26.67;;;17.50;95.80;;;;;;4993019;28;20046;-70
2021/09/09 08:20:20;;;;;;;28.67;25.67;;;17.60;95.80;;;;;;4993094;28;20073;-70
2021/09/09 08:22:46;;;;;;;29.27;25.57;;;17.70;95.70;;;;;;4994046;28;20058;-71
2021/09/09 08:25:12;;;;;;;28.13;25.17;;;17.80;95.60;;;;;;4992293;28;20137;-71
2021/09/09 08:27:39;;;;;;;28.27;24.63;;;17.90;95.40;;;;;;4992206;28;20046;-71
2021/09/09 08:30:05;;;;;;;28.07;25.17;;;18.00;95.20;;;;;;4993905;28;20060;-70
2021/09/09 08:32:31;;;;;;;28.83;25.53;;;18.10;95.10;;;;;;4993656;28;20050;-70
2021/09/09 08:34:57;;;;;;;27.83;25.03;;;18.20;95.10;;;;;;4992455;28;20042;-70
2021/09/09 08:37:24;;;;;;;27.67;24.77;;;18.50;94.80;;;;;;4993432;28;20051;-71
2021/09/09 08:39:50;;;;;;;28.33;25.33;;;18.70;94.30;;;;;;4993264;28;20046;-71
2021/09/09 08:42:17;;;;;;;26.97;24.07;;;18.80;94.10;;;;;;4992419;28;20042;-71
2021/09/09 08:44:43;;;;;;;26.97;24.37;;;18.80;93.90;;;;;;4993022;28;20050;-69
2021/09/09 08:47:10;;;;;;;27.00;24.23;;;18.90;93.80;;;;;;4993185;28;20561;-71
2021/09/09 08:49:36;;;;;;;27.33;24.63;;;18.90;93.70;;;;;;4992995;28;20172;-70
2021/09/09 08:52:04;;;;;;;29.03;26.03;;;19.00;93.70;;;;;;4992286;28;20173;-70
2021/09/09 08:54:30;;;;;;;29.13;25.03;;;19.00;93.50;;;;;;4992434;28;20081;-70
2021/09/09 08:56:57;;;;;;;28.23;24.37;;;19.10;93.20;;;;;;4992374;28;20057;-71
2021/09/09 08:59:22;;;;;;;27.10;24.23;;;19.20;92.90;;;;;;4991905;28;20077;-70
2021/09/09 09:02:09;;;;;;;27.33;24.50;;;19.30;92.80;;;;;;4992479;28;20460;-70
2021/09/09 09:04:36;;;;;;;27.53;24.43;;;19.40;92.70;;;;;;4992958;28;20088;-71
2021/09/09 09:07:04;;;;;;;27.53;24.57;;;19.50;92.60;;;;;;4992791;28;20160;-71
2021/09/09 09:09:33;;;;;;;27.90;24.30;;;19.50;92.50;;;;;;4991022;28;20058;-70
2021/09/09 09:12:02;;;;;;;27.90;24.93;;;19.60;92.40;;;;;;4992132;28;20042;-72
2021/09/09 09:14:28;;;;;;;24.93;22.53;;;19.70;92.30;;;;;;4992632;28;20499;-74
2021/09/09 09:16:56;;;;;;;27.87;24.47;;;19.80;92.20;;;;;;4992287;28;20137;-73
2021/09/09 09:19:25;;;;;;;24.97;22.37;;;19.90;92.00;;;;;;4992816;28;20054;-73
2021/09/09 09:22:06;;;;;;;24.87;22.03;;;20.00;91.90;;;;;;4993043;28;20046;-74
2021/09/09 09:24:41;;;;;;;26.30;23.50;;;20.10;91.80;;;;;;4992341;28;20396;-74
2021/09/09 09:27:09;;;;;;;25.47;22.93;;;20.20;91.70;;;;;;4991426;28;20042;-74
2021/09/09 09:29:36;;;;;;;22.37;20.17;;;20.30;91.60;;;;;;4992215;28;20042;-74
2021/09/09 09:32:09;;;;;;;24.10;21.70;;;20.30;91.20;;;;;;4992298;28;20042;-73
2021/09/09 09:34:34;;;;;;;23.50;21.08;;;20.40;90.80;;;;;;4992661;28;20030;-74
2021/09/09 09:37:00;;;;;;;23.40;21.07;;;20.50;90.60;;;;;;4991778;28;20136;-74
2021/09/09 09:39:26;;;;;;;24.20;21.70;;;20.60;90.40;;;;;;4992690;28;20442;-73
2021/09/09 09:41:54;;;;;;;24.70;22.20;;;20.70;90.30;;;;;;4992477;28;20042;-75
2021/09/09 09:44:36;;;;;;;24.37;21.63;;;20.80;90.20;;;;;;4990308;28;20081;-74
2021/09/09 09:47:19;;;;;;;21.00;18.77;;;20.90;90.10;;;;;;4992527;28;20104;-74
2021/09/09 09:49:50;;;;;;;21.53;19.30;;;21.00;89.90;;;;;;4991468;28;20077;-75
2021/09/09 09:52:22;;;;;;;20.27;18.00;;;21.00;88.80;;;;;;4991716;28;20035;-74
2021/09/09 09:54:56;;;;;;;21.20;18.88;;;21.10;88.20;;;;;;4991356;28;20053;-75
2021/09/09 09:57:23;;;;;;;21.45;18.80;;;21.20;87.70;;;;;;4992584;28;20100;-75
2021/09/09 09:59:48;;;;;;;19.20;17.25;;;21.30;88.60;;;;;;4991942;28;20121;-75
2021/09/09 10:02:15;;;;;;;21.05;18.70;;;21.40;87.30;;;;;;4990333;28;20081;-75
2021/09/09 10:04:43;;;;;;;23.80;18.65;;;21.40;86.80;;;;;;4989995;28;20511;-75
2021/09/09 10:07:09;;;;;;;20.70;18.48;;;21.50;86.30;;;;;;4991549;28;20403;-74
2021/09/09 10:09:35;;;;;;;20.13;17.75;;;21.60;85.60;;;;;;4991598;28;20090;-75
2021/09/09 10:12:00;;;;;;;20.33;18.02;;;21.70;84.80;;;;;;4991715;28;20054;-74
2021/09/09 10:14:26;;;;;;;19.70;17.33;;;21.70;84.40;;;;;;4992217;28;20061;-75
2021/09/09 10:16:57;;;;;;;18.80;16.10;;;21.80;84.70;;;;;;4992600;28;20042;-75
2021/09/09 10:19:31;;;;;;;19.85;17.17;;;21.90;83.90;;;;;;4991359;28;20536;-74
2021/09/09 10:22:12;;;;;;;18.55;16.65;;;22.00;83.50;;;;;;4992349;28;20487;-74
2021/09/09 10:24:40;;;;;;;26.42;16.75;;;22.10;82.40;;;;;;4992453;28;20125;-74
2021/09/09 10:27:33;;;;;;;18.90;16.30;;;22.20;82.10;;;;;;4992498;28;20500;-74
2021/09/09 10:30:04;;;;;;;19.85;15.43;;;22.30;81.30;;;;;;4995934;28;20042;-75
2021/09/09 10:32:32;;;;;;;15.43;13.80;;;22.40;80.20;;;;;;4994858;28;20455;-74
2021/09/09 10:35:20;;;;;;;18.92;14.75;;;22.50;79.70;;;;;;4995410;28;20046;-75
2021/09/09 10:37:53;;;;;;;14.90;13.30;;;22.60;79.00;;;;;;4996615;28;20069;-75
2021/09/09 10:40:28;;;;;;;16.27;14.57;;;22.70;78.50;;;;;;4993748;28;20042;-74
2021/09/09 10:42:54;;;;;;;15.23;13.73;;;22.80;77.60;;;;;;4994542;28;20069;-75
2021/09/09 10:45:35;;;;;;;18.13;13.80;;;22.90;76.80;;;;;;4995319;28;20050;-75
2021/09/09 10:48:02;;;;;;;17.60;13.18;;;23.10;76.70;;;;;;4995395;28;20054;-74
2021/09/09 10:50:28;;;;;;;15.73;14.02;;;23.20;77.30;;;;;;4994311;28;20050;-74
2021/09/09 10:53:14;;;;;;;15.25;13.75;;;23.30;76.80;;;;;;4995732;28;20038;-73
2021/09/09 10:55:43;;;;;;;16.35;13.15;;;23.40;75.40;;;;;;4994977;28;20504;-74
2021/09/09 10:58:12;;;;;;;16.83;12.38;;;23.60;74.10;;;;;;4995628;28;20118;-75
2021/09/09 11:00:50;;;;;;;13.10;11.75;;;23.70;73.90;;;;;;4995609;28;20051;-73
2021/09/09 11:03:34;;;;;;;14.48;11.93;;;23.80;73.70;;;;;;4995129;28;20074;-75
2021/09/09 11:06:01;;;;;;;15.02;12.73;;;23.90;71.60;;;;;;4995680;28;20042;-75
2021/09/09 11:08:27;;;;;;;15.23;12.40;;;24.00;72.30;;;;;;4994466;28;20084;-74
2021/09/09 11:10:53;;;;;;;14.02;11.70;;;24.10;72.20;;;;;;4995122;28;20088;-73
2021/09/09 11:13:27;;;;;;;13.57;12.15;;;24.30;72.10;;;;;;4994621;28;20050;-74
2021/09/09 11:15:53;;;;;;;15.25;11.85;;;24.40;70.70;;;;;;4976680;28;20054;-73
2021/09/09 11:18:29;;;;;;;14.95;12.57;;;24.50;70.00;;;;;;4995190;28;20432;-73
2021/09/09 11:21:07;;;;;;;12.55;11.30;;;24.60;69.10;;;;;;4995197;28;20510;-74
2021/09/09 11:23:34;;;;;;;17.08;12.30;;;24.70;69.30;;;;;;4994569;28;20039;-73
2021/09/09 11:26:11;;;;;;;13.23;11.82;;;24.80;69.20;;;;;;4995387;28;20050;-73
2021/09/09 11:28:36;;;;;;;15.68;11.50;;;24.90;68.10;;;;;;4995051;28;20056;-73
2021/09/09 11:31:16;;;;;;;14.43;12.40;;;24.90;67.70;;;;;;4994513;28;20034;-73
2021/09/09 11:33:59;;;;;;;15.13;11.90;;;25.00;67.30;;;;;;4993919;28;20551;-72
2021/09/09 11:36:29;;;;;;;13.48;12.13;;;25.10;67.40;;;;;;4992467;28;20093;-72
2021/09/09 11:38:56;;;;;;;13.60;12.07;;;25.20;67.20;;;;;;4993316;28;20051;-73
2021/09/09 11:41:24;;;;;;;13.40;10.18;;;25.20;66.20;;;;;;4994460;28;20446;-73
2021/09/09 11:43:52;;;;;;;15.00;11.48;;;25.40;66.30;;;;;;4994101;28;20050;-73
2021/09/09 11:46:33;;;;;;;12.25;10.93;;;25.50;65.10;;;;;;4994680;28;20034;-73
2021/09/09 11:49:07;;;;;;;13.18;10.27;;;25.60;63.40;;;;;;4994836;28;20081;-73
2021/09/09 11:51:38;;;;;;;12.52;11.13;;;25.70;64.60;;;;;;4992457;28;20046;-73
2021/09/09 11:54:24;;;;;;;11.80;10.60;;;25.70;64.50;;;;;;4994827;28;20073;-73
2021/09/09 11:57:03;;;;;;;13.27;11.35;;;25.80;64.10;;;;;;4993606;28;20502;-73
2021/09/09 11:59:29;;;;;;;15.93;11.18;;;25.80;63.00;;;;;;4993778;28;20050;-73
2021/09/09 12:02:05;;;;;;;12.77;10.80;;;25.90;62.20;;;;;;4994338;28;20108;-74
2021/09/09 12:04:31;;;;;;;12.50;10.77;;;25.90;62.10;;;;;;4993701;28;20046;-73
2021/09/09 12:06:57;;;;;;;12.57;10.50;;;26.00;62.30;;;;;;4994387;28;20046;-72
2021/09/09 12:09:28;;;;;;;12.60;10.27;;;26.00;61.00;;;;;;4992991;28;20081;-73
2021/09/09 12:12:11;;;;;;;11.70;9.85;;;26.10;60.60;;;;;;4993665;28;20121;-73
2021/09/09 12:14:38;;;;;;;12.65;10.32;;;26.10;61.20;;;;;;4994475;28;20061;-72
2021/09/09 12:17:15;;;;;;;11.25;9.85;;;26.20;61.10;;;;;;4994114;28;20526;-73
2021/09/09 12:19:58;;;;;;;12.30;9.00;;;26.20;59.80;;;;;;4993512;28;20056;-73
2021/09/09 12:22:43;;;;;;;11.63;10.43;;;26.20;59.70;;;;;;4993812;28;20491;-73
2021/09/09 12:25:14;;;;;;;11.63;10.43;;;26.30;60.30;;;;;;4993825;28;20050;-74
2021/09/09 12:27:53;;;;;;;13.65;8.70;;;26.30;59.90;;;;;;4992806;28;20046;-73
2021/09/09 12:30:33;;;;;;;14.27;9.23;;;26.30;60.40;;;;;;4992427;28;20424;-73